createdAt,value
2022-07-25T00:01:37.738Z,6.67
2022-07-25T00:04:09.383Z,8.67
2022-07-25T00:06:40.802Z,4.43
2022-07-25T00:09:09.575Z,4.90
2022-07-25T00:11:39.592Z,7.23
2022-07-25T00:14:09.277Z,4.93
2022-07-25T00:16:38.307Z,5.07
2022-07-25T00:19:07.232Z,5.80
2022-07-25T00:21:35.749Z,6.27
2022-07-25T00:24:04.821Z,4.80
2022-07-25T00:26:39.472Z,4.80
2022-07-25T00:29:10.120Z,6.43
2022-07-25T00:31:38.737Z,9.37
2022-07-25T00:34:07.873Z,3.97
2022-07-25T00:36:36.659Z,5.07
2022-07-25T00:39:05.314Z,5.40
2022-07-25T00:41:33.903Z,4.70
2022-07-25T00:44:02.870Z,5.10
2022-07-25T00:46:33.062Z,6.83
2022-07-25T00:49:01.713Z,5.67
2022-07-25T00:51:30.378Z,7.73
2022-07-25T00:53:59.507Z,6.50
2022-07-25T00:56:28.270Z,6.27
2022-07-25T00:58:57.138Z,7.17
2022-07-25T01:01:25.742Z,5.50
2022-07-25T01:03:55.778Z,5.10
2022-07-25T01:06:24.853Z,4.03
2022-07-25T01:08:54.421Z,4.57
2022-07-25T01:11:23.959Z,4.83
2022-07-25T01:13:52.855Z,5.37
2022-07-25T01:16:21.475Z,10.13
2022-07-25T01:18:50.088Z,4.53
2022-07-25T01:21:19.966Z,4.53
2022-07-25T01:23:48.538Z,5.77
2022-07-25T01:26:17.058Z,7.60
2022-07-25T01:28:45.631Z,6.03
2022-07-25T01:31:14.236Z,6.63
2022-07-25T01:33:42.808Z,6.80
2022-07-25T01:36:11.649Z,6.47
2022-07-25T01:38:41.702Z,6.50
2022-07-25T01:41:10.331Z,6.80
2022-07-25T01:43:38.836Z,9.27
2022-07-25T01:46:07.690Z,5.80
2022-07-25T01:48:36.452Z,5.67
2022-07-25T01:51:05.202Z,7.23
2022-07-25T01:53:33.871Z,5.77
2022-07-25T01:56:08.957Z,8.83
2022-07-25T01:58:39.540Z,18.53
2022-07-25T02:01:08.274Z,7.33
2022-07-25T02:03:37.024Z,14.00
2022-07-25T02:06:07.897Z,8.17
2022-07-25T02:08:36.730Z,10.23
2022-07-25T02:11:07.051Z,7.57
2022-07-25T02:13:35.743Z,6.83
2022-07-25T02:16:04.344Z,7.47
2022-07-25T02:18:32.978Z,9.60
2022-07-25T02:21:01.612Z,6.63
2022-07-25T02:23:30.135Z,7.83
2022-07-25T02:25:58.694Z,10.93
2022-07-25T02:28:28.641Z,9.07
2022-07-25T02:30:57.297Z,10.03
2022-07-25T02:33:25.902Z,14.20
2022-07-25T02:35:54.452Z,9.90
2022-07-25T02:38:23.145Z,9.43
2022-07-25T02:40:52.917Z,10.77
2022-07-25T02:43:22.209Z,13.40
2022-07-25T02:45:52.220Z,15.03
2022-07-25T02:48:20.933Z,13.53
2022-07-25T02:50:49.498Z,20.90
2022-07-25T02:53:28.967Z,15.70
2022-07-25T02:56:07.040Z,12.60
2022-07-25T02:58:36.392Z,16.87
2022-07-25T03:01:09.692Z,15.13
2022-07-25T03:03:38.344Z,14.60
2022-07-25T03:06:07.476Z,22.97
2022-07-25T03:08:36.026Z,21.03
2022-07-25T03:11:04.779Z,22.30
2022-07-25T03:13:34.104Z,22.83
2022-07-25T03:16:02.978Z,19.73
2022-07-25T03:18:32.882Z,29.47
2022-07-25T03:21:01.547Z,42.43
2022-07-25T03:23:31.107Z,44.83
2022-07-25T03:25:59.894Z,37.10
2022-07-25T03:28:28.506Z,46.10
2022-07-25T03:30:57.124Z,48.23
2022-07-25T03:33:25.722Z,52.50
2022-07-25T03:35:56.481Z,59.43
2022-07-25T03:38:25.445Z,55.37
2022-07-25T03:40:53.984Z,53.60
2022-07-25T03:43:22.548Z,50.80
2022-07-25T03:45:51.139Z,49.90
2022-07-25T03:48:19.696Z,48.03
2022-07-25T03:50:48.237Z,67.57
2022-07-25T03:53:18.548Z,74.83
2022-07-25T03:55:47.144Z,56.57
2022-07-25T03:58:15.742Z,67.53
2022-07-25T04:00:44.349Z,75.67
2022-07-25T04:03:12.937Z,74.13
2022-07-25T04:05:47.009Z,73.70
2022-07-25T04:08:17.411Z,76.03
2022-07-25T04:10:45.945Z,78.37
2022-07-25T04:13:14.466Z,111.40
2022-07-25T04:15:43.000Z,80.57
2022-07-25T04:18:13.177Z,86.57
2022-07-25T04:20:47.128Z,82.73
2022-07-25T04:23:17.140Z,74.03
2022-07-25T04:25:45.688Z,71.10
2022-07-25T04:28:14.268Z,81.87
2022-07-25T04:30:45.372Z,89.83
2022-07-25T04:33:15.383Z,100.27
2022-07-25T04:35:44.096Z,90.63
2022-07-25T04:38:12.886Z,100.40
2022-07-25T04:40:42.989Z,100.10
2022-07-25T04:43:11.817Z,102.77
2022-07-25T04:45:40.644Z,99.13
2022-07-25T04:48:09.442Z,99.17
2022-07-25T04:50:38.102Z,107.07
2022-07-25T04:53:07.346Z,110.40
2022-07-25T04:55:36.322Z,108.43
2022-07-25T04:58:06.698Z,119.63
2022-07-25T05:00:35.357Z,112.77
2022-07-25T05:03:04.058Z,110.43
2022-07-25T05:05:32.707Z,116.67
2022-07-25T05:08:01.849Z,126.53
2022-07-25T05:10:31.238Z,111.87
2022-07-25T05:12:59.748Z,118.80
2022-07-25T05:15:29.680Z,107.77
2022-07-25T05:17:58.291Z,120.97
2022-07-25T05:20:26.976Z,106.27
2022-07-25T05:22:55.627Z,104.57
2022-07-25T05:25:25.377Z,106.93
2022-07-25T05:27:55.869Z,103.30
2022-07-25T05:30:24.365Z,107.70
2022-07-25T05:32:54.544Z,92.40
2022-07-25T05:35:23.079Z,144.33
2022-07-25T05:37:51.588Z,94.90
2022-07-25T05:40:20.353Z,96.33
2022-07-25T05:42:49.001Z,94.90
2022-07-25T05:45:17.538Z,94.20
2022-07-25T05:47:46.065Z,78.97
2022-07-25T05:50:16.012Z,80.30
2022-07-25T05:52:44.566Z,78.73
2022-07-25T05:55:13.661Z,64.73
2022-07-25T05:57:42.329Z,47.97
2022-07-25T06:00:12.032Z,50.40
2022-07-25T06:02:40.702Z,52.60
2022-07-25T06:05:09.991Z,37.17
2022-07-25T06:07:39.881Z,48.77
2022-07-25T06:10:08.715Z,45.20
2022-07-25T06:12:37.737Z,43.60
2022-07-25T06:15:07.359Z,47.07
2022-07-25T06:17:41.248Z,44.50
2022-07-25T06:20:10.693Z,34.77
2022-07-25T06:22:40.686Z,53.80
2022-07-25T06:25:09.955Z,32.90
2022-07-25T06:27:39.633Z,34.17
2022-07-25T06:30:19.077Z,31.50
2022-07-25T06:32:48.226Z,34.13
2022-07-25T06:35:16.814Z,36.50
2022-07-25T06:37:46.878Z,30.70
2022-07-25T06:40:15.984Z,34.97
2022-07-25T06:42:46.570Z,27.43
2022-07-25T06:45:16.391Z,38.03
2022-07-25T06:47:46.303Z,33.40
2022-07-25T06:50:18.499Z,27.83
2022-07-25T06:52:51.404Z,28.13
2022-07-25T06:55:19.981Z,25.00
2022-07-25T06:57:48.526Z,25.73
2022-07-25T07:00:17.553Z,22.70
2022-07-25T07:02:51.153Z,27.80
2022-07-25T07:05:20.099Z,23.83
2022-07-25T07:07:50.038Z,27.77
2022-07-25T07:10:19.569Z,21.90
2022-07-25T07:12:48.179Z,19.37
2022-07-25T07:15:17.240Z,22.87
2022-07-25T07:17:45.761Z,20.60
2022-07-25T07:20:14.414Z,25.57
2022-07-25T07:22:47.341Z,22.73
2022-07-25T07:25:19.659Z,22.13
2022-07-25T07:27:48.769Z,24.20
2022-07-25T07:30:23.712Z,27.00
2022-07-25T07:32:52.928Z,23.63
2022-07-25T07:35:21.475Z,23.77
2022-07-25T07:37:50.049Z,22.30
2022-07-25T07:40:20.456Z,24.93
2022-07-25T07:42:50.232Z,29.43
2022-07-25T07:45:20.253Z,29.60
2022-07-25T07:47:49.911Z,20.63
2022-07-25T07:50:20.196Z,20.87
2022-07-25T07:52:49.491Z,25.20
2022-07-25T07:55:37.599Z,18.53
2022-07-25T07:58:07.338Z,25.53
2022-07-25T08:00:39.158Z,23.37
2022-07-25T08:03:09.329Z,21.00
2022-07-25T08:05:40.607Z,21.43
2022-07-25T08:08:11.012Z,29.83
2022-07-25T08:10:43.544Z,25.10
2022-07-25T08:13:16.606Z,21.03
2022-07-25T08:15:46.350Z,20.10
2022-07-25T08:18:16.898Z,28.87
2022-07-25T08:20:46.317Z,20.20
2022-07-25T08:23:15.199Z,16.30
2022-07-25T08:25:45.694Z,21.63
2022-07-25T08:28:14.734Z,16.50
2022-07-25T08:30:43.954Z,16.40
2022-07-25T08:33:15.913Z,14.17
2022-07-25T08:35:48.942Z,11.00
2022-07-25T08:38:18.185Z,13.70
2022-07-25T08:40:48.591Z,12.77
2022-07-25T08:43:18.135Z,11.90
2022-07-25T08:45:48.248Z,13.00
2022-07-25T08:48:19.668Z,13.00
2022-07-25T08:50:49.519Z,12.13
2022-07-25T08:53:36.134Z,11.30
2022-07-25T08:56:17.393Z,12.50
2022-07-25T08:58:49.599Z,15.87
2022-07-25T09:01:18.367Z,16.23
2022-07-25T09:03:46.951Z,9.13
2022-07-25T09:06:20.662Z,9.60
2022-07-25T09:08:53.654Z,7.63
2022-07-25T09:11:31.455Z,10.20
2022-07-25T09:14:02.213Z,15.83
2022-07-25T09:16:31.853Z,7.50
2022-07-25T09:19:15.029Z,8.60
2022-07-25T09:21:58.217Z,7.40
2022-07-25T09:24:28.160Z,6.80
2022-07-25T09:27:00.567Z,10.10
2022-07-25T09:29:31.534Z,6.77
2022-07-25T09:32:01.720Z,8.20
2022-07-25T09:34:35.706Z,7.10
2022-07-25T09:37:05.367Z,14.93
2022-07-25T09:39:45.448Z,10.50
2022-07-25T09:42:25.386Z,7.90
2022-07-25T09:45:06.816Z,8.17
2022-07-25T09:47:37.404Z,7.20
2022-07-25T09:50:07.582Z,8.20
2022-07-25T09:52:36.795Z,12.87
2022-07-25T09:55:09.480Z,7.00
2022-07-25T09:57:39.430Z,7.60
2022-07-25T10:00:10.101Z,6.97
2022-07-25T10:02:49.323Z,8.83
2022-07-25T10:05:21.838Z,6.63
2022-07-25T10:07:54.098Z,8.73
2022-07-25T10:10:30.274Z,7.83
2022-07-25T10:13:10.153Z,14.43
2022-07-25T10:15:47.887Z,10.13
2022-07-25T10:18:18.544Z,8.13
2022-07-25T10:20:48.268Z,7.70
2022-07-25T10:23:25.848Z,7.83
2022-07-25T10:26:13.293Z,12.23
2022-07-25T10:28:46.521Z,7.20
2022-07-25T10:31:27.779Z,8.40
2022-07-25T10:33:58.716Z,13.10
2022-07-25T10:36:32.388Z,8.00
2022-07-25T10:39:02.615Z,6.53
2022-07-25T10:41:31.407Z,11.60
2022-07-25T10:44:04.089Z,7.53
2022-07-25T10:46:37.196Z,7.80
2022-07-25T10:49:08.061Z,8.40
2022-07-25T10:51:41.958Z,8.80
2022-07-25T10:54:15.348Z,10.23
2022-07-25T10:56:54.134Z,7.90
2022-07-25T10:59:32.545Z,16.80
2022-07-25T11:02:01.922Z,7.30
2022-07-25T11:04:30.941Z,7.57
2022-07-25T11:07:08.568Z,7.23
2022-07-25T11:09:37.120Z,12.90
2022-07-25T11:12:06.815Z,7.97
2022-07-25T11:14:41.271Z,7.53
2022-07-25T11:17:15.692Z,7.50
2022-07-25T11:19:45.788Z,6.80
2022-07-25T11:22:17.072Z,14.40
2022-07-25T11:24:47.736Z,7.87
2022-07-25T11:27:23.419Z,8.77
2022-07-25T11:29:53.431Z,17.73
2022-07-25T11:32:22.387Z,7.40
2022-07-25T11:34:54.553Z,8.63
2022-07-25T11:37:23.330Z,15.03
2022-07-25T11:39:52.988Z,7.57
2022-07-25T11:42:22.895Z,8.37
2022-07-25T11:44:54.475Z,8.93
2022-07-25T11:47:27.536Z,7.33
2022-07-25T11:49:57.767Z,6.63
2022-07-25T11:52:31.053Z,6.67
2022-07-25T11:55:01.838Z,8.20
2022-07-25T11:57:32.356Z,6.67
2022-07-25T12:00:03.598Z,8.47
2022-07-25T12:02:35.379Z,11.77
2022-07-25T12:05:06.318Z,7.77
2022-07-25T12:07:40.264Z,7.13
2022-07-25T12:10:11.136Z,7.27
2022-07-25T12:12:50.896Z,6.80
2022-07-25T12:15:23.156Z,8.27
2022-07-25T12:17:52.669Z,9.10
2022-07-25T12:20:22.473Z,8.93
2022-07-25T12:22:52.440Z,7.73
2022-07-25T12:25:21.206Z,10.87
2022-07-25T12:27:50.961Z,6.40
2022-07-25T12:30:21.054Z,7.40
2022-07-25T12:32:49.763Z,7.73
2022-07-25T12:35:18.592Z,6.30
2022-07-25T12:37:47.508Z,6.60
2022-07-25T12:40:17.229Z,10.30
2022-07-25T12:42:46.599Z,7.97
2022-07-25T12:45:17.146Z,11.00
2022-07-25T12:47:48.394Z,9.53
2022-07-25T12:50:18.066Z,10.10
2022-07-25T12:52:47.520Z,11.03
2022-07-25T12:55:17.523Z,6.67
2022-07-25T12:57:46.451Z,7.40
2022-07-25T13:00:17.566Z,7.20
2022-07-25T13:02:47.706Z,8.60
2022-07-25T13:05:16.400Z,8.43
2022-07-25T13:07:44.987Z,7.10
2022-07-25T13:10:13.675Z,16.40
2022-07-25T13:12:42.387Z,10.13
2022-07-25T13:15:11.526Z,10.93
2022-07-25T13:17:41.080Z,11.33
2022-07-25T13:20:12.452Z,9.20
2022-07-25T13:22:40.985Z,12.17
2022-07-25T13:25:09.814Z,9.27
2022-07-25T13:27:39.450Z,8.30
2022-07-25T13:30:10.127Z,9.60
2022-07-25T13:32:38.658Z,12.77
2022-07-25T13:35:07.913Z,8.20
2022-07-25T13:37:37.784Z,8.60
2022-07-25T13:40:09.032Z,13.60
2022-07-25T13:42:38.217Z,8.47
2022-07-25T13:45:07.723Z,9.20
2022-07-25T13:47:36.522Z,8.03
2022-07-25T13:50:06.154Z,8.70
2022-07-25T13:52:34.783Z,8.50
2022-07-25T13:55:05.220Z,8.53
2022-07-25T13:57:34.458Z,7.77
2022-07-25T14:00:03.437Z,8.90
2022-07-25T14:02:32.043Z,9.97
2022-07-25T14:05:03.964Z,11.47
2022-07-25T14:07:32.940Z,8.17
2022-07-25T14:10:02.930Z,9.47
2022-07-25T14:12:31.549Z,10.77
2022-07-25T14:15:00.105Z,8.40
2022-07-25T14:17:30.603Z,9.83
2022-07-25T14:19:59.247Z,11.50
2022-07-25T14:22:27.914Z,10.37
2022-07-25T14:24:56.428Z,7.77
2022-07-25T14:27:26.344Z,7.80
2022-07-25T14:29:55.011Z,8.03
2022-07-25T14:32:23.640Z,11.00
2022-07-25T14:34:52.573Z,8.50
2022-07-25T14:37:23.398Z,9.60
2022-07-25T14:39:52.420Z,8.33
2022-07-25T14:42:21.089Z,12.90
2022-07-25T14:44:51.066Z,8.13
2022-07-25T14:47:19.785Z,9.30
2022-07-25T14:49:48.350Z,8.03
2022-07-25T14:52:17.114Z,14.13
2022-07-25T14:54:45.729Z,8.37
2022-07-25T14:57:14.244Z,11.60
2022-07-25T14:59:42.757Z,7.10
2022-07-25T15:02:12.651Z,14.63
2022-07-25T15:04:41.227Z,7.60
2022-07-25T15:07:12.199Z,14.03
2022-07-25T15:09:44.029Z,7.07
2022-07-25T15:12:16.617Z,7.73
2022-07-25T15:14:48.968Z,8.43
2022-07-25T15:17:21.702Z,8.07
2022-07-25T15:19:50.497Z,7.93
2022-07-25T15:22:19.022Z,7.50
2022-07-25T15:25:27.166Z,7.73
2022-07-25T15:27:36.065Z,11.83
2022-07-25T15:30:05.081Z,7.30
2022-07-25T15:32:34.961Z,7.23
2022-07-25T15:35:05.245Z,7.20
2022-07-25T15:37:33.911Z,9.10
2022-07-25T15:40:02.545Z,8.30
2022-07-25T15:42:35.742Z,6.20
2022-07-25T15:45:31.590Z,9.27
2022-07-25T15:47:56.497Z,6.60
2022-07-25T15:50:25.380Z,8.37
2022-07-25T15:52:53.903Z,7.50
2022-07-25T15:55:22.576Z,7.57
2022-07-25T15:57:52.467Z,8.10
2022-07-25T16:00:23.673Z,11.53
2022-07-25T16:02:56.249Z,7.43
2022-07-25T16:05:25.071Z,8.23
2022-07-25T16:07:53.916Z,8.03
2022-07-25T16:10:22.860Z,7.20
2022-07-25T16:12:51.418Z,6.60
2022-07-25T16:15:20.009Z,7.50
2022-07-25T16:17:49.456Z,10.27
2022-07-25T16:20:19.499Z,8.43
2022-07-25T16:22:49.057Z,17.70
2022-07-25T16:25:17.878Z,7.20
2022-07-25T16:27:46.419Z,12.10
2022-07-25T16:30:15.622Z,9.73
2022-07-25T16:32:44.169Z,7.40
2022-07-25T16:35:12.726Z,6.53
2022-07-25T16:37:43.622Z,7.20
2022-07-25T16:40:12.654Z,10.77
2022-07-25T16:42:41.227Z,11.30
2022-07-25T16:45:10.801Z,6.70
2022-07-25T16:47:41.826Z,10.53
2022-07-25T16:50:10.847Z,7.10
2022-07-25T16:52:39.360Z,8.17
2022-07-25T16:55:09.892Z,13.47
2022-07-25T16:57:39.676Z,7.30
2022-07-25T17:00:10.240Z,6.03
2022-07-25T17:02:39.730Z,15.33
2022-07-25T17:05:08.943Z,6.80
2022-07-25T17:07:39.383Z,8.33
2022-07-25T17:10:10.296Z,9.80
2022-07-25T17:12:38.917Z,6.97
2022-07-25T17:15:09.160Z,7.63
2022-07-25T17:17:37.689Z,10.03
2022-07-25T17:20:07.265Z,15.80
2022-07-25T17:22:35.868Z,9.23
2022-07-25T17:25:04.531Z,11.60
2022-07-25T17:27:34.426Z,7.10
2022-07-25T17:30:03.023Z,6.97
2022-07-25T17:32:31.587Z,9.33
2022-07-25T17:35:00.103Z,8.10
2022-07-25T17:37:28.691Z,9.33
2022-07-25T17:39:57.384Z,8.53
2022-07-25T17:42:25.944Z,7.47
2022-07-25T17:44:55.830Z,14.10
2022-07-25T17:47:24.519Z,9.60
2022-07-25T17:49:53.209Z,22.07
2022-07-25T17:52:21.765Z,60.03
2022-07-25T17:54:50.308Z,22.13
2022-07-25T17:57:19.063Z,34.03
2022-07-25T17:59:47.572Z,11.07
2022-07-25T18:02:17.473Z,7.27
2022-07-25T18:04:45.915Z,18.83
2022-07-25T18:07:14.566Z,10.80
2022-07-25T18:09:43.192Z,14.97
2022-07-25T18:12:11.651Z,8.27
2022-07-25T18:14:40.196Z,15.30
2022-07-25T18:17:08.703Z,9.60
2022-07-25T18:19:39.054Z,8.90
2022-07-25T18:22:07.586Z,9.60
2022-07-25T18:24:36.079Z,9.20
2022-07-25T18:27:05.355Z,17.73
2022-07-25T18:29:37.038Z,12.60
2022-07-25T18:32:06.159Z,19.93
2022-07-25T18:34:34.786Z,12.57
2022-07-25T18:37:04.693Z,13.57
2022-07-25T18:39:33.266Z,22.53
2022-07-25T18:42:01.810Z,20.97
2022-07-25T18:44:32.377Z,13.03
2022-07-25T18:47:01.226Z,14.60
2022-07-25T18:49:30.461Z,14.27
2022-07-25T18:51:58.999Z,18.90
2022-07-25T18:54:28.845Z,16.80
2022-07-25T18:56:57.532Z,24.10
2022-07-25T18:59:26.450Z,25.03
2022-07-25T19:01:55.484Z,12.97
2022-07-25T19:04:24.048Z,29.63
2022-07-25T19:06:52.603Z,14.07
2022-07-25T19:09:21.250Z,17.00
2022-07-25T19:11:51.286Z,19.30
2022-07-25T19:14:19.830Z,12.93
2022-07-25T19:16:50.178Z,16.63
2022-07-25T19:19:18.784Z,12.10
2022-07-25T19:21:47.522Z,20.57
2022-07-25T19:24:16.187Z,15.53
2022-07-25T19:26:48.212Z,17.63
2022-07-25T19:29:19.123Z,13.90
2022-07-25T19:31:48.173Z,24.80
2022-07-25T19:34:16.801Z,13.67
2022-07-25T19:36:48.237Z,17.20
2022-07-25T19:39:17.490Z,22.70
2022-07-25T19:41:49.187Z,12.33
2022-07-25T19:44:19.272Z,18.63
2022-07-25T19:46:48.763Z,14.17
2022-07-25T19:49:17.943Z,22.53
2022-07-25T19:51:46.548Z,17.23
2022-07-25T19:54:15.082Z,18.63
2022-07-25T19:56:43.602Z,22.73
2022-07-25T19:59:12.232Z,20.33
2022-07-25T20:01:42.397Z,11.97
2022-07-25T20:04:13.133Z,31.73
2022-07-25T20:06:43.370Z,15.17
2022-07-25T20:09:12.254Z,17.73
2022-07-25T20:11:41.789Z,21.60
2022-07-25T20:14:10.881Z,20.80
2022-07-25T20:16:41.806Z,19.40
2022-07-25T20:19:11.900Z,13.27
2022-07-25T20:21:41.840Z,16.10
2022-07-25T20:24:12.388Z,14.63
2022-07-25T20:26:41.281Z,11.80
2022-07-25T20:29:10.133Z,13.00
2022-07-25T20:31:39.285Z,21.63
2022-07-25T20:34:09.424Z,16.97
2022-07-25T20:36:37.991Z,22.13
2022-07-25T20:39:07.437Z,13.70
2022-07-25T20:41:38.309Z,22.47
2022-07-25T20:44:07.511Z,13.10
2022-07-25T20:46:36.887Z,14.60
2022-07-25T20:49:08.733Z,21.90
2022-07-25T20:51:40.391Z,14.50
2022-07-25T20:54:09.546Z,12.30
2022-07-25T20:56:38.187Z,25.83
2022-07-25T20:59:07.223Z,17.20
2022-07-25T21:01:36.017Z,13.23
2022-07-25T21:04:07.624Z,14.23
2022-07-25T21:06:38.104Z,20.00
2022-07-25T21:09:08.694Z,20.87
2022-07-25T21:11:37.612Z,21.83
2022-07-25T21:14:09.597Z,16.87
2022-07-25T21:16:38.562Z,20.13
2022-07-25T21:19:07.468Z,16.53
2022-07-25T21:21:36.607Z,16.80
2022-07-25T21:24:07.461Z,18.17
2022-07-25T21:26:37.042Z,21.60
2022-07-25T21:29:06.165Z,14.87
2022-07-25T21:31:35.473Z,26.73
2022-07-25T21:34:04.439Z,15.70
2022-07-25T21:36:34.136Z,25.73
2022-07-25T21:39:02.654Z,16.20
2022-07-25T21:41:32.577Z,25.47
2022-07-25T21:44:01.461Z,18.40
2022-07-25T21:46:30.106Z,15.87
2022-07-25T21:49:15.965Z,13.13
2022-07-25T21:51:45.116Z,13.17
2022-07-25T21:54:14.074Z,15.00
2022-07-25T21:56:44.022Z,13.80
2022-07-25T21:59:12.589Z,13.27
2022-07-25T22:01:41.273Z,15.63
2022-07-25T22:04:10.002Z,15.27
2022-07-25T22:06:38.923Z,16.77
2022-07-25T22:09:08.452Z,16.33
2022-07-25T22:11:42.562Z,23.03
2022-07-25T22:14:16.512Z,24.63
2022-07-25T22:16:45.149Z,16.37
2022-07-25T22:19:14.088Z,16.17
2022-07-25T22:21:43.144Z,15.87
2022-07-25T22:24:12.220Z,14.10
2022-07-25T22:26:40.825Z,22.40
2022-07-25T22:29:09.684Z,18.53
2022-07-25T22:31:40.018Z,18.40
2022-07-25T22:34:08.738Z,12.60
2022-07-25T22:36:37.328Z,16.43
2022-07-25T22:39:06.417Z,13.23
2022-07-25T22:41:35.097Z,13.90
2022-07-25T22:44:03.762Z,20.93
2022-07-25T22:46:32.867Z,17.23
2022-07-25T22:49:03.243Z,25.70
2022-07-25T22:51:32.148Z,15.13
2022-07-25T22:54:00.920Z,18.63
2022-07-25T22:56:29.699Z,21.03
2022-07-25T22:58:58.387Z,28.30
2022-07-25T23:01:26.930Z,31.83
2022-07-25T23:03:55.532Z,37.40
2022-07-25T23:06:25.461Z,34.77
2022-07-25T23:08:53.998Z,34.27
2022-07-25T23:11:22.620Z,40.30
2022-07-25T23:13:51.177Z,42.97
2022-07-25T23:16:19.987Z,42.97
2022-07-25T23:18:48.563Z,47.50
2022-07-25T23:21:17.092Z,46.20
2022-07-25T23:23:47.092Z,45.70
2022-07-25T23:26:15.690Z,41.80
2022-07-25T23:28:44.228Z,37.80
2022-07-25T23:31:12.855Z,37.53
2022-07-25T23:33:41.442Z,21.07
2022-07-25T23:36:11.178Z,18.20
2022-07-25T23:38:39.816Z,20.17
2022-07-25T23:41:09.881Z,22.70
2022-07-25T23:43:56.640Z,30.40
2022-07-25T23:46:29.237Z,31.57
2022-07-25T23:49:00.121Z,36.57
2022-07-25T23:51:29.308Z,41.27
2022-07-25T23:53:57.993Z,38.07
2022-07-25T23:56:27.970Z,40.93
2022-07-25T23:58:56.549Z,46.67
